Time;durP1;ratioP1;P1;durP2;ratioP2;P2;SDS_P1;SDS_P2;PMS_P1;PMS_P2;Temp;Humidity;BMP_temperature;BMP_pressure;BME280_temperature;BME280_humidity;BME280_pressure;Samples;Min_cycle;Max_cycle;Signal;HPM_P1;HPM_P2
2022/05/13 00:01:10;;;;;;;10.88;5.28;;;17.90;99.90;;;;;;5074094;28;20049;-67
2022/05/13 00:03:38;;;;;;;10.05;4.80;;;17.90;99.90;;;;;;5074203;28;20039;-67
2022/05/13 00:06:06;;;;;;;8.38;5.65;;;17.80;99.90;;;;;;5074157;28;20048;-67
2022/05/13 00:08:33;;;;;;;11.40;5.03;;;17.80;99.90;;;;;;5074036;28;20040;-67
2022/05/13 00:11:02;;;;;;;6.32;4.80;;;17.80;99.90;;;;;;5073789;28;20059;-67
2022/05/13 00:13:29;;;;;;;5.93;4.30;;;17.70;99.90;;;;;;5073602;28;20052;-67
2022/05/13 00:15:56;;;;;;;;;;;17.70;99.90;;;;;;5074327;28;20090;-67
2022/05/13 00:18:23;;;;;;;11.43;5.22;;;17.70;99.90;;;;;;5073952;28;19927;-66
2022/05/13 00:20:50;;;;;;;8.73;5.95;;;17.60;99.90;;;;;;5073623;28;20060;-65
2022/05/13 00:23:17;;;;;;;6.90;5.82;;;17.40;99.90;;;;;;5073734;28;20044;-64
2022/05/13 00:25:43;;;;;;;15.35;6.72;;;17.30;99.90;;;;;;5073794;28;20052;-64
2022/05/13 00:28:11;;;;;;;13.13;7.18;;;17.10;99.90;;;;;;5073933;28;20446;-65
2022/05/13 00:30:40;;;;;;;15.93;7.65;;;16.90;99.90;;;;;;5070801;28;20101;-65
2022/05/13 00:33:09;;;;;;;15.40;7.05;;;16.70;99.90;;;;;;5073705;28;20131;-65
2022/05/13 00:35:37;;;;;;;10.90;6.55;;;16.60;99.90;;;;;;5073744;28;20058;-65
2022/05/13 00:38:04;;;;;;;16.15;7.20;;;16.60;99.90;;;;;;5055565;28;20134;-65
2022/05/13 00:40:31;;;;;;;10.98;7.47;;;16.40;99.90;;;;;;5073138;28;20553;-66
2022/05/13 00:43:04;;;;;;;13.98;7.57;;;16.30;99.90;;;;;;5053497;28;20037;-66
2022/05/13 00:45:32;;;;;;;23.65;8.27;;;16.30;99.90;;;;;;5053565;28;20047;-66
2022/05/13 00:47:59;;;;;;;10.93;6.95;;;16.40;99.90;;;;;;5061181;28;20056;-66
2022/05/13 00:50:30;;;;;;;10.65;7.30;;;16.20;99.90;;;;;;5072644;28;20523;-66
2022/05/13 00:52:56;;;;;;;11.88;8.00;;;16.20;99.90;;;;;;5073658;28;20055;-66
2022/05/13 00:55:30;;;;;;;13.75;8.13;;;16.20;99.90;;;;;;5073308;28;20098;-66
2022/05/13 00:57:58;;;;;;;15.05;6.80;;;16.20;99.90;;;;;;5073392;28;20040;-66
2022/05/13 01:00:26;;;;;;;16.88;8.05;;;16.20;99.90;;;;;;5071674;28;20412;-66
2022/05/13 01:02:52;;;;;;;15.68;7.85;;;16.10;99.90;;;;;;5073204;28;20051;-65
2022/05/13 01:05:20;;;;;;;16.80;8.38;;;16.10;99.90;;;;;;5072897;28;20068;-65
2022/05/13 01:07:49;;;;;;;14.18;8.60;;;16.10;99.90;;;;;;5073045;28;20063;-65
2022/05/13 01:10:19;;;;;;;17.33;8.20;;;16.10;99.90;;;;;;5072416;28;20090;-66
2022/05/13 01:12:50;;;;;;;12.75;8.20;;;16.10;99.90;;;;;;5055405;28;20056;-65
2022/05/13 01:15:25;;;;;;;13.15;8.50;;;15.90;99.90;;;;;;5073061;28;20487;-65
2022/05/13 01:18:05;;;;;;;15.63;8.82;;;15.90;99.90;;;;;;5072774;28;20048;-66
2022/05/13 01:20:48;;;;;;;14.57;8.55;;;15.90;99.90;;;;;;5072587;28;20036;-66
2022/05/13 01:23:21;;;;;;;16.05;7.80;;;15.80;99.90;;;;;;5072729;28;20037;-66
2022/05/13 01:25:52;;;;;;;14.50;8.85;;;15.80;99.90;;;;;;5072655;28;20052;-66
2022/05/13 01:28:22;;;;;;;11.43;6.65;;;15.80;99.90;;;;;;5073287;28;20037;-65
2022/05/13 01:30:56;;;;;;;15.27;7.07;;;15.80;99.90;;;;;;5072469;28;20044;-67
2022/05/13 01:33:23;;;;;;;12.65;7.43;;;15.70;99.90;;;;;;5072855;28;20040;-66
2022/05/13 01:35:55;;;;;;;10.43;7.22;;;15.80;99.90;;;;;;5072613;28;20045;-66
2022/05/13 01:38:25;;;;;;;12.77;7.13;;;15.80;99.90;;;;;;5072466;28;20115;-66
2022/05/13 01:40:52;;;;;;;10.48;6.90;;;15.80;99.90;;;;;;5072585;28;20033;-66
2022/05/13 01:43:20;;;;;;;17.90;8.43;;;15.80;99.90;;;;;;5072533;28;20109;-66
2022/05/13 01:45:46;;;;;;;;;;;15.90;99.90;;;;;;5072935;28;20447;-66
2022/05/13 01:48:14;;;;;;;12.10;8.05;;;15.90;99.90;;;;;;5072681;28;20291;-66
2022/05/13 01:50:41;;;;;;;;;;;15.90;99.90;;;;;;5072366;28;20455;-65
2022/05/13 01:53:08;;;;;;;16.77;7.43;;;15.90;99.90;;;;;;5065882;28;19962;-66
2022/05/13 01:55:36;;;;;;;15.50;7.70;;;15.80;99.90;;;;;;5072532;28;20078;-66
2022/05/13 01:58:04;;;;;;;11.48;7.30;;;15.80;99.90;;;;;;5072250;28;20059;-66
2022/05/13 02:00:31;;;;;;;10.02;7.35;;;15.80;99.90;;;;;;5065939;28;20047;-66
2022/05/13 02:05:43;;;;;;;14.52;7.97;;;15.80;99.90;;;;;;5072514;28;20446;-65
2022/05/13 02:08:10;;;;;;;11.93;8.00;;;15.70;99.90;;;;;;5072233;28;20090;-65
2022/05/13 02:10:36;;;;;;;13.07;7.57;;;15.70;99.90;;;;;;5071205;28;20052;-65
2022/05/13 02:13:03;;;;;;;12.65;8.18;;;15.60;99.90;;;;;;5072149;28;20489;-65
2022/05/13 02:15:30;;;;;;;9.95;7.15;;;15.60;99.90;;;;;;5071966;28;20425;-65
2022/05/13 02:17:56;;;;;;;14.23;7.20;;;15.60;99.90;;;;;;5071633;28;20357;-65
2022/05/13 02:20:23;;;;;;;12.10;7.30;;;15.60;99.90;;;;;;5071570;28;20056;-65
2022/05/13 02:22:50;;;;;;;11.32;7.95;;;15.60;99.90;;;;;;5071893;28;20036;-65
2022/05/13 02:25:18;;;;;;;13.00;6.82;;;15.60;99.90;;;;;;5071650;28;20454;-66
2022/05/13 02:27:45;;;;;;;11.63;6.75;;;15.50;99.90;;;;;;5071910;28;20098;-65
2022/05/13 02:30:13;;;;;;;13.15;7.25;;;15.50;99.90;;;;;;5071411;28;20416;-66
2022/05/13 02:32:40;;;;;;;11.00;7.32;;;15.40;99.90;;;;;;5069664;28;20119;-66
2022/05/13 02:35:08;;;;;;;12.70;7.63;;;15.40;99.90;;;;;;5071484;28;20052;-65
2022/05/13 02:37:35;;;;;;;15.13;8.60;;;15.40;99.90;;;;;;5054141;28;20153;-66
2022/05/13 02:40:03;;;;;;;12.38;7.70;;;15.50;99.90;;;;;;5068011;28;20098;-65
2022/05/13 02:42:29;;;;;;;13.40;8.15;;;15.40;99.90;;;;;;5067779;28;20110;-65
2022/05/13 02:44:56;;;;;;;14.48;8.70;;;15.40;99.90;;;;;;5071255;28;20489;-65
2022/05/13 02:47:23;;;;;;;11.40;7.43;;;15.50;99.90;;;;;;5071389;28;20049;-66
2022/05/13 02:50:17;;;;;;;13.45;8.98;;;15.50;99.90;;;;;;5071423;28;20048;-65
2022/05/13 02:52:37;;;;;;;12.95;8.57;;;15.50;99.90;;;;;;5071646;28;20093;-65
2022/05/13 02:55:05;;;;;;;15.77;8.90;;;15.50;99.90;;;;;;5071451;28;20044;-65
2022/05/13 02:57:32;;;;;;;12.30;8.43;;;15.50;99.90;;;;;;5067573;28;20040;-65
2022/05/13 02:59:59;;;;;;;12.18;7.72;;;15.50;99.90;;;;;;5051108;28;20041;-65
2022/05/13 03:02:26;;;;;;;9.73;7.47;;;15.50;99.90;;;;;;5051476;28;20059;-65
2022/05/13 03:04:53;;;;;;;14.13;7.47;;;15.40;99.90;;;;;;5051779;28;20037;-65
2022/05/13 03:07:20;;;;;;;11.75;7.32;;;15.50;99.90;;;;;;5066138;28;20079;-65
2022/05/13 03:09:47;;;;;;;16.63;8.95;;;15.50;99.90;;;;;;5071061;28;20048;-65
2022/05/13 03:12:14;;;;;;;12.88;8.25;;;15.50;99.90;;;;;;5071068;28;20044;-66
2022/05/13 03:14:40;;;;;;;12.05;8.07;;;15.50;99.90;;;;;;5071255;28;20052;-65
2022/05/13 03:17:07;;;;;;;11.80;8.50;;;15.60;99.90;;;;;;5070998;28;20044;-65
2022/05/13 03:19:35;;;;;;;12.88;8.75;;;15.60;99.90;;;;;;5071122;28;20094;-65
2022/05/13 03:22:03;;;;;;;11.95;8.25;;;15.60;99.90;;;;;;5070615;28;20041;-65
2022/05/13 03:24:30;;;;;;;13.93;8.15;;;15.60;99.90;;;;;;5075364;28;20055;-65
2022/05/13 03:26:57;;;;;;;14.05;9.40;;;15.60;99.90;;;;;;5075746;28;20057;-65
2022/05/13 03:29:24;;;;;;;13.20;9.55;;;15.70;99.90;;;;;;5075064;28;20048;-65
2022/05/13 03:31:56;;;;;;;14.65;8.80;;;15.50;99.90;;;;;;5074665;28;20040;-65
2022/05/13 03:34:23;;;;;;;14.27;8.65;;;15.50;99.90;;;;;;5075149;28;20378;-65
2022/05/13 03:36:50;;;;;;;14.65;8.70;;;15.50;99.90;;;;;;5074999;28;20094;-65
2022/05/13 03:39:17;;;;;;;18.58;9.77;;;15.50;99.90;;;;;;5074879;28;20082;-65
2022/05/13 03:41:44;;;;;;;15.00;9.00;;;15.50;99.90;;;;;;5056588;28;20040;-65
2022/05/13 03:44:11;;;;;;;15.20;9.65;;;15.50;99.90;;;;;;5075032;28;20041;-65
2022/05/13 03:46:37;;;;;;;12.05;9.57;;;15.50;99.90;;;;;;5074876;28;20102;-65
2022/05/13 03:49:05;;;;;;;17.17;10.18;;;15.50;99.90;;;;;;5074800;28;20041;-65
2022/05/13 03:51:32;;;;;;;14.73;9.85;;;15.50;99.90;;;;;;5074043;28;20496;-65
2022/05/13 03:53:58;;;;;;;15.13;9.88;;;15.50;99.90;;;;;;5054620;28;20459;-65
2022/05/13 03:56:25;;;;;;;16.35;10.02;;;15.50;99.90;;;;;;5054810;28;20099;-65
2022/05/13 03:58:52;;;;;;;16.70;10.07;;;15.50;99.90;;;;;;5072046;28;20036;-65
2022/05/13 04:01:19;;;;;;;19.05;10.75;;;15.50;99.90;;;;;;5074211;28;20056;-65
2022/05/13 04:03:47;;;;;;;15.15;9.43;;;15.40;99.90;;;;;;5074504;28;20558;-65
2022/05/13 04:09:02;;;;;;;14.40;10.98;;;15.40;99.90;;;;;;5058282;28;20051;-65
2022/05/13 04:11:38;;;;;;;16.10;10.27;;;15.30;99.90;;;;;;5073715;28;20454;-65
2022/05/13 04:16:54;;;;;;;14.88;10.43;;;15.40;99.90;;;;;;5069511;28;20040;-65
2022/05/13 04:19:24;;;;;;;19.50;11.23;;;15.40;99.90;;;;;;5093055;22;20044;-64
2022/05/13 04:22:16;;;;;;;15.95;10.90;;;15.50;99.90;;;;;;5073493;28;20041;-64
2022/05/13 04:24:42;;;;;;;17.15;10.80;;;15.50;99.90;;;;;;5074109;28;20041;-64
2022/05/13 04:27:09;;;;;;;18.65;11.73;;;15.50;99.90;;;;;;5076655;28;20057;-64
2022/05/13 04:29:37;;;;;;;18.88;11.13;;;15.50;99.90;;;;;;5083307;28;20097;-64
2022/05/13 04:32:04;;;;;;;15.13;11.88;;;15.50;99.90;;;;;;5093953;28;20044;-64
2022/05/13 04:34:31;;;;;;;;;;;15.50;99.90;;;;;;5094395;28;20036;-64
2022/05/13 04:36:57;;;;;;;16.10;10.50;;;15.50;99.90;;;;;;5089331;28;19924;-64
2022/05/13 04:39:24;;;;;;;14.32;9.15;;;15.50;99.90;;;;;;5087625;28;20044;-64
2022/05/13 04:44:37;;;;;;;14.30;9.30;;;15.70;99.90;;;;;;5089880;28;20047;-64
2022/05/13 04:48:15;;;;;;;14.60;10.05;;;15.60;99.90;;;;;;5079785;28;20036;-64
2022/05/13 04:49:51;;;;;;;14.60;8.50;;;15.70;99.90;;;;;;5093233;28;20424;-64
2022/05/13 04:52:17;;;;;;;13.75;8.65;;;15.70;99.90;;;;;;5093294;28;20093;-64
2022/05/13 04:54:44;;;;;;;11.27;7.93;;;15.70;99.90;;;;;;5092767;28;20036;-64
2022/05/13 04:57:11;;;;;;;10.95;7.47;;;15.70;99.90;;;;;;5093185;28;20090;-64
2022/05/13 04:59:37;;;;;;;13.75;7.45;;;15.70;99.90;;;;;;5093313;28;20086;-64
2022/05/13 05:02:04;;;;;;;9.88;7.28;;;15.80;99.90;;;;;;5086707;28;20029;-64
2022/05/13 05:04:31;;;;;;;14.43;8.60;;;15.80;99.90;;;;;;5092614;28;20070;-64
2022/05/13 05:06:58;;;;;;;17.92;10.15;;;15.80;99.90;;;;;;5077159;28;20106;-64
2022/05/13 05:09:25;;;;;;;16.40;9.40;;;15.90;99.90;;;;;;5080920;28;20061;-64
2022/05/13 05:11:51;;;;;;;13.93;9.60;;;15.90;99.90;;;;;;5074293;28;20049;-64
2022/05/13 05:14:18;;;;;;;11.13;7.68;;;15.90;99.90;;;;;;5073178;28;20511;-64
2022/05/13 05:16:45;;;;;;;11.50;8.75;;;15.90;99.90;;;;;;5083712;28;20036;-64
2022/05/13 05:19:12;;;;;;;10.70;8.13;;;15.90;99.90;;;;;;5084741;28;20070;-64
2022/05/13 05:21:39;;;;;;;15.80;9.13;;;15.90;99.90;;;;;;5092458;28;20109;-64
2022/05/13 05:24:06;;;;;;;15.13;9.15;;;16.00;99.90;;;;;;5093144;28;20044;-64
2022/05/13 05:26:33;;;;;;;10.60;8.52;;;16.00;99.90;;;;;;5091929;28;20042;-64
2022/05/13 05:28:59;;;;;;;12.85;9.63;;;16.10;99.90;;;;;;5092613;28;20504;-64
2022/05/13 05:31:26;;;;;;;15.40;10.00;;;16.10;99.90;;;;;;5092299;28;20082;-64
2022/05/13 05:33:53;;;;;;;15.02;10.18;;;16.20;99.90;;;;;;5092395;28;20043;-64
2022/05/13 05:36:20;;;;;;;17.02;10.52;;;16.20;99.90;;;;;;5086347;28;20056;-64
2022/05/13 05:38:47;;;;;;;16.08;11.80;;;16.20;99.90;;;;;;5092264;28;20043;-64
2022/05/13 05:41:13;;;;;;;19.00;11.63;;;16.20;99.90;;;;;;5092404;28;20044;-64
2022/05/13 05:43:40;;;;;;;19.58;11.98;;;16.30;99.90;;;;;;5092127;28;20052;-64
2022/05/13 05:46:07;;;;;;;21.23;14.73;;;16.20;99.90;;;;;;5082713;28;20044;-64
2022/05/13 05:48:34;;;;;;;17.58;11.48;;;16.20;99.90;;;;;;5082229;28;20038;-64
2022/05/13 05:51:00;;;;;;;19.52;11.82;;;16.10;99.90;;;;;;5090376;28;20036;-64
2022/05/13 05:59:09;;;;;;;17.83;10.73;;;16.10;99.90;;;;;;5085875;28;20105;-64
2022/05/13 06:01:36;;;;;;;14.57;11.02;;;16.20;99.90;;;;;;5091871;28;20036;-64
2022/05/13 06:04:03;;;;;;;17.67;12.63;;;16.20;99.90;;;;;;5092575;28;20044;-64
2022/05/13 06:06:30;;;;;;;21.52;12.98;;;16.30;99.90;;;;;;5065540;28;20048;-64
2022/05/13 06:08:58;;;;;;;20.05;12.40;;;16.30;99.90;;;;;;5080459;28;20417;-64
2022/05/13 06:11:26;;;;;;;15.25;11.65;;;16.30;99.90;;;;;;5074089;28;20074;-64
2022/05/13 06:13:57;;;;;;;19.63;12.77;;;16.30;99.90;;;;;;5072142;28;20052;-64
2022/05/13 06:16:26;;;;;;;19.65;12.82;;;16.30;99.90;;;;;;5083780;28;20044;-64
2022/05/13 06:18:54;;;;;;;18.85;11.50;;;16.30;99.90;;;;;;5091373;28;20089;-64
2022/05/13 06:21:21;;;;;;;17.85;11.27;;;16.40;99.90;;;;;;5091302;28;20032;-64
2022/05/13 06:23:48;;;;;;;17.38;12.40;;;16.60;99.90;;;;;;5091500;28;20105;-65
2022/05/13 06:26:14;;;;;;;15.55;11.13;;;16.70;99.90;;;;;;5086054;28;20094;-64
2022/05/13 06:28:41;;;;;;;17.45;11.82;;;16.70;99.90;;;;;;5081901;28;20081;-64
2022/05/13 06:31:09;;;;;;;19.70;13.05;;;16.70;99.90;;;;;;5082060;28;20037;-64
2022/05/13 06:33:36;;;;;;;14.35;10.95;;;16.70;99.90;;;;;;5085713;28;20078;-64
2022/05/13 06:36:03;;;;;;;;;;;16.80;99.90;;;;;;5084622;28;20056;-64
2022/05/13 06:38:30;;;;;;;14.55;9.82;;;16.90;99.90;;;;;;5079351;28;19920;-64
2022/05/13 06:40:56;;;;;;;12.95;10.02;;;17.00;99.90;;;;;;5074900;28;20036;-64
2022/05/13 06:43:24;;;;;;;13.07;9.43;;;17.30;99.90;;;;;;5083501;28;20063;-64
2022/05/13 06:45:51;;;;;;;14.05;9.75;;;17.40;99.90;;;;;;5091735;28;20089;-65
2022/05/13 06:48:18;;;;;;;;;;;17.60;99.90;;;;;;5092009;28;20377;-65
2022/05/13 06:50:46;;;;;;;12.88;7.95;;;17.80;99.90;;;;;;5088731;28;20010;-65
2022/05/13 06:53:15;;;;;;;11.70;8.45;;;17.90;99.90;;;;;;5085540;28;20040;-65
2022/05/13 06:55:44;;;;;;;12.00;9.07;;;17.80;99.90;;;;;;5082449;28;20106;-64
2022/05/13 06:58:12;;;;;;;13.55;8.63;;;17.70;99.90;;;;;;5084029;28;20044;-64
2022/05/13 07:00:39;;;;;;;14.45;9.15;;;17.40;99.90;;;;;;5082402;28;20548;-63
2022/05/13 07:03:10;;;;;;;11.73;8.45;;;17.20;99.90;;;;;;5091521;28;20134;-63
2022/05/13 07:05:36;;;;;;;12.57;9.30;;;17.10;99.90;;;;;;5090892;28;20451;-64
2022/05/13 07:08:04;;;;;;;15.80;10.90;;;17.10;99.90;;;;;;5090920;28;20082;-64
2022/05/13 07:10:30;;;;;;;18.85;10.38;;;17.00;99.90;;;;;;5082584;28;20056;-64
2022/05/13 07:12:57;;;;;;;12.70;9.95;;;17.10;99.90;;;;;;5091570;28;20052;-64
2022/05/13 07:15:24;;;;;;;19.05;10.98;;;17.00;99.90;;;;;;5091454;28;20044;-64
2022/05/13 07:17:51;;;;;;;15.20;10.77;;;17.00;99.90;;;;;;5086948;28;20044;-64
2022/05/13 07:20:17;;;;;;;21.63;11.30;;;16.90;99.90;;;;;;5083869;28;20561;-64
2022/05/13 07:22:44;;;;;;;16.20;11.07;;;17.00;99.90;;;;;;5091421;28;20087;-64
2022/05/13 07:25:11;;;;;;;17.55;10.27;;;17.00;99.90;;;;;;5090762;28;20561;-64
2022/05/13 07:27:38;;;;;;;16.83;11.38;;;17.00;99.90;;;;;;5082900;28;20044;-64
2022/05/13 07:30:05;;;;;;;17.45;11.02;;;17.00;99.90;;;;;;5091249;28;20048;-64
2022/05/13 07:32:32;;;;;;;;;;;17.00;99.90;;;;;;5091081;28;20055;-64
2022/05/13 07:34:59;;;;;;;18.20;11.52;;;17.10;99.90;;;;;;5079154;28;19928;-64
2022/05/13 07:37:26;;;;;;;17.02;12.65;;;17.10;99.90;;;;;;5070873;28;20106;-64
2022/05/13 07:42:39;;;;;;;19.40;12.00;;;17.10;99.90;;;;;;5084702;28;20197;-64
2022/05/13 07:45:06;;;;;;;23.05;13.13;;;17.20;99.90;;;;;;5083907;28;20036;-64
2022/05/13 07:47:33;;;;;;;;;;;17.30;99.90;;;;;;5091312;28;20044;-64
2022/05/13 07:50:01;;;;;;;17.75;11.40;;;17.50;99.90;;;;;;5090149;28;19965;-64
2022/05/13 07:52:28;;;;;;;20.05;11.30;;;17.50;99.90;;;;;;5082952;28;20048;-64
2022/05/13 07:54:54;;;;;;;23.80;13.20;;;17.60;99.90;;;;;;5091135;28;20036;-64
2022/05/13 07:57:21;;;;;;;24.10;13.00;;;17.50;99.90;;;;;;5091073;28;20101;-64
2022/05/13 08:02:37;;;;;;;23.42;13.75;;;17.50;99.90;;;;;;5082634;28;20044;-64
2022/05/13 08:05:04;;;;;;;18.45;12.98;;;17.50;99.90;;;;;;5091019;28;20052;-64
2022/05/13 08:07:31;;;;;;;20.63;13.95;;;17.50;99.90;;;;;;5072173;28;20385;-64
2022/05/13 08:09:58;;;;;;;23.52;13.52;;;17.60;99.90;;;;;;5081628;28;20510;-64
2022/05/13 08:12:24;;;;;;;21.92;13.15;;;17.70;99.90;;;;;;5074260;28;20459;-64
2022/05/13 08:14:51;;;;;;;22.65;12.88;;;17.70;99.90;;;;;;5074363;28;20079;-64
2022/05/13 08:17:18;;;;;;;17.67;12.18;;;17.70;99.90;;;;;;5082872;28;20397;-64
2022/05/13 08:19:44;;;;;;;22.67;12.55;;;17.80;99.90;;;;;;5085534;28;20052;-64
2022/05/13 08:22:11;;;;;;;17.10;11.43;;;17.60;99.90;;;;;;5094010;28;20566;-64
2022/05/13 08:24:38;;;;;;;23.73;13.43;;;17.50;99.90;;;;;;5094288;28;20442;-65
2022/05/13 08:27:05;;;;;;;22.10;13.68;;;17.50;99.90;;;;;;5093796;28;20039;-64
2022/05/13 08:29:32;;;;;;;;;;;17.70;99.90;;;;;;5086259;28;20492;-64
2022/05/13 08:31:58;;;;;;;15.10;11.40;;;17.90;99.90;;;;;;5093620;28;19920;-64
2022/05/13 08:34:25;;;;;;;14.80;10.85;;;18.30;99.90;;;;;;5093630;28;20123;-64
2022/05/13 08:36:53;;;;;;;15.23;10.60;;;18.60;99.90;;;;;;5085548;28;20108;-64
2022/05/13 08:39:20;;;;;;;16.48;10.57;;;18.80;99.90;;;;;;5093864;28;20040;-64
2022/05/13 08:42:21;;;;;;;17.55;9.30;;;19.00;99.90;;;;;;5093290;28;20079;-64
2022/05/13 08:44:49;;;;;;;12.32;9.32;;;19.10;99.90;;;;;;5085482;28;20119;-64
2022/05/13 08:47:27;;;;;;;16.23;10.07;;;19.10;99.90;;;;;;5094025;28;20051;-64
2022/05/13 08:49:55;;;;;;;19.83;11.57;;;19.20;99.90;;;;;;5093351;28;20047;-64
2022/05/13 08:55:35;;;;;;;14.80;10.15;;;19.70;99.90;;;;;;5081881;28;20496;-65
2022/05/13 08:58:06;;;;;;;14.85;8.43;;;20.10;99.90;;;;;;5073399;28;20045;-64
2022/05/13 09:00:36;;;;;;;33.70;10.73;;;20.30;99.90;;;;;;5063576;28;20044;-65
2022/05/13 09:03:17;;;;;;;10.75;8.95;;;20.20;99.90;;;;;;5086068;28;20093;-65
2022/05/13 09:05:55;;;;;;;12.32;8.48;;;20.10;99.90;;;;;;5093405;28;20044;-64
2022/05/13 09:08:22;;;;;;;12.13;9.35;;;20.00;99.90;;;;;;5094292;28;20515;-65
2022/05/13 09:10:55;;;;;;;;;;;19.90;99.90;;;;;;5085985;28;20048;-64
2022/05/13 09:13:34;;;;;;;11.20;8.85;;;19.80;99.90;;;;;;5088484;28;19935;-65
2022/05/13 09:16:05;;;;;;;14.90;12.65;;;19.60;99.90;;;;;;5093205;28;20584;-64
2022/05/13 09:18:36;;;;;;;17.73;12.65;;;19.40;99.90;;;;;;5092622;28;20058;-65
2022/05/13 09:21:12;;;;;;;17.13;10.25;;;19.30;99.90;;;;;;5083882;28;20036;-65
2022/05/13 09:23:39;;;;;;;14.32;10.40;;;19.10;99.90;;;;;;5093338;28;20500;-65
2022/05/13 09:26:14;;;;;;;;;;;19.00;99.90;;;;;;5092942;28;20032;-65
2022/05/13 09:28:59;;;;;;;13.05;9.80;;;19.00;99.90;;;;;;5084337;28;19924;-65
2022/05/13 09:31:28;;;;;;;18.05;10.68;;;19.10;99.90;;;;;;5092525;28;20126;-65
2022/05/13 09:34:39;;;;;;;15.75;9.93;;;19.20;99.90;;;;;;5091667;28;20048;-65
2022/05/13 09:37:10;;;;;;;12.57;8.90;;;19.30;99.90;;;;;;5070080;28;20076;-65
2022/05/13 09:39:41;;;;;;;12.07;7.85;;;19.20;99.90;;;;;;5092734;28;20040;-65
2022/05/13 09:42:23;;;;;;;11.57;7.85;;;19.40;99.90;;;;;;5091887;28;20679;-65
2022/05/13 09:44:51;;;;;;;12.40;9.23;;;19.60;99.90;;;;;;5084369;28;20461;-64
2022/05/13 09:47:30;;;;;;;14.75;9.43;;;19.80;99.90;;;;;;5092841;28;20123;-64
2022/05/13 09:50:30;;;;;;;12.68;8.32;;;20.30;99.90;;;;;;5092161;28;20048;-65
2022/05/13 09:53:27;;;;;;;13.38;8.75;;;20.50;99.90;;;;;;5088938;28;20518;-64
2022/05/13 09:55:57;;;;;;;16.60;8.52;;;20.70;99.90;;;;;;5092177;28;20047;-64
2022/05/13 09:58:23;;;;;;;13.57;8.68;;;21.00;99.90;;;;;;5092379;28;20040;-65
2022/05/13 10:01:21;;;;;;;15.52;8.40;;;21.60;99.90;;;;;;5088768;28;20035;-64
2022/05/13 10:04:08;;;;;;;11.10;8.27;;;21.40;99.90;;;;;;5090683;28;20052;-64
2022/05/13 10:06:36;;;;;;;11.60;7.38;;;21.00;99.90;;;;;;5092427;28;20070;-64
2022/05/13 10:14:45;;;;;;;16.10;8.68;;;21.10;99.90;;;;;;5092464;28;20047;-64
2022/05/13 10:17:22;;;;;;;19.48;9.02;;;21.30;99.90;;;;;;5091729;28;20450;-64
2022/05/13 10:20:07;;;;;;;21.70;10.27;;;21.20;99.90;;;;;;5094765;22;20467;-66
2022/05/13 10:23:03;;;;;;;14.02;8.70;;;21.00;99.90;;;;;;5063734;28;20060;-66
2022/05/13 10:25:46;;;;;;;12.13;7.28;;;21.00;99.90;;;;;;5068361;28;20439;-65
2022/05/13 10:28:16;;;;;;;9.43;7.15;;;21.00;99.90;;;;;;5072053;28;20051;-65
2022/05/13 10:30:55;;;;;;;9.20;6.93;;;21.00;99.90;;;;;;5071046;28;20044;-65
2022/05/13 10:33:37;;;;;;;10.60;7.78;;;21.50;99.90;;;;;;5071023;28;20082;-65
2022/05/13 10:36:19;;;;;;;10.25;6.20;;;21.60;99.90;;;;;;5064127;28;20489;-65
2022/05/13 10:39:08;;;;;;;8.40;7.28;;;21.70;99.90;;;;;;5071610;28;20055;-65
2022/05/13 10:41:57;;;;;;;8.32;6.38;;;21.80;99.90;;;;;;5071166;28;20041;-65
2022/05/13 10:44:35;;;;;;;8.63;6.55;;;21.70;99.90;;;;;;5064298;28;20143;-65
2022/05/13 10:47:08;;;;;;;16.55;6.75;;;21.70;99.90;;;;;;5064301;28;20145;-65
2022/05/13 10:49:39;;;;;;;8.30;6.15;;;21.60;99.90;;;;;;5071521;28;20067;-65
2022/05/13 10:52:12;;;;;;;12.85;7.07;;;21.50;99.90;;;;;;5070007;28;20127;-65
2022/05/13 10:54:51;;;;;;;13.32;6.43;;;21.50;99.90;;;;;;5067821;28;20044;-65
2022/05/13 10:57:32;;;;;;;10.43;6.70;;;21.40;99.90;;;;;;5051539;28;20041;-65
2022/05/13 11:00:14;;;;;;;15.82;7.47;;;21.50;99.90;;;;;;5050752;28;20517;-65
2022/05/13 11:03:03;;;;;;;9.65;5.97;;;21.50;99.90;;;;;;5052351;28;20048;-65
2022/05/13 11:06:11;;;;;;;12.35;7.43;;;21.30;99.90;;;;;;5063142;28;20044;-65
2022/05/13 11:08:51;;;;;;;11.38;6.93;;;20.90;99.90;;;;;;5028614;28;20456;-65
2022/05/13 11:11:26;;;;;;;15.68;7.38;;;20.40;99.90;;;;;;5056624;28;20462;-65
2022/05/13 11:14:21;;;;;;;8.40;7.10;;;20.30;99.90;;;;;;5060424;28;20053;-65
2022/05/13 11:16:51;;;;;;;11.48;7.25;;;20.10;99.90;;;;;;5051167;28;20553;-65
2022/05/13 11:19:40;;;;;;;13.32;7.55;;;20.20;99.90;;;;;;5057179;28;20094;-65
2022/05/13 11:22:16;;;;;;;11.93;7.60;;;20.10;99.90;;;;;;5063728;28;20056;-66
2022/05/13 11:28:20;;;;;;;10.68;6.80;;;19.90;99.90;;;;;;5067920;28;20041;-65
2022/05/13 11:31:05;;;;;;;10.70;7.18;;;19.90;99.90;;;;;;5060174;28;20697;-65
2022/05/13 11:33:56;;;;;;;8.63;7.03;;;20.00;99.90;;;;;;5051007;28;20045;-65
2022/05/13 11:36:37;;;;;;;12.45;6.40;;;20.10;99.90;;;;;;5051177;28;20045;-65
2022/05/13 11:39:41;;;;;;;9.20;7.03;;;20.20;99.90;;;;;;5063876;28;20086;-65
2022/05/13 11:42:27;;;;;;;8.98;6.47;;;20.30;99.90;;;;;;5070496;28;20090;-65
2022/05/13 11:45:16;;;;;;;13.68;7.15;;;20.40;99.90;;;;;;5074220;28;20124;-65
2022/05/13 11:48:17;;;;;;;10.70;7.05;;;20.30;99.90;;;;;;5071621;28;20045;-65
2022/05/13 11:50:44;;;;;;;10.75;5.80;;;20.50;99.90;;;;;;5049578;28;20053;-65
2022/05/13 11:53:11;;;;;;;9.30;7.15;;;20.70;99.90;;;;;;5054637;28;20071;-65
2022/05/13 11:55:41;;;;;;;10.48;6.80;;;20.70;99.90;;;;;;5055502;28;20055;-65
2022/05/13 11:58:28;;;;;;;10.90;6.68;;;20.70;99.90;;;;;;5069491;28;20032;-65
2022/05/13 12:00:55;;;;;;;11.00;7.05;;;20.70;99.90;;;;;;5052715;28;20448;-65
2022/05/13 12:03:22;;;;;;;19.60;9.15;;;20.50;99.90;;;;;;5054334;28;20102;-65
2022/05/13 12:06:15;;;;;;;20.52;10.38;;;20.10;99.90;;;;;;5056352;28;20068;-66
2022/05/13 12:08:53;;;;;;;15.75;5.20;;;19.70;99.90;;;;;;5062110;28;20655;-65
2022/05/13 12:11:41;;;;;;;19.38;4.50;;;18.70;99.90;;;;;;5053752;28;20055;-65
2022/05/13 12:14:36;;;;;;;14.43;3.72;;;17.90;99.90;;;;;;5052582;28;20087;-65
2022/05/13 12:17:20;;;;;;;25.02;4.72;;;17.20;99.90;;;;;;5066520;28;20071;-65
2022/05/13 12:20:04;;;;;;;6.32;3.67;;;16.70;99.90;;;;;;5073620;28;20040;-65
2022/05/13 12:22:31;;;;;;;7.40;2.92;;;16.40;99.90;;;;;;5073979;28;20048;-65
2022/05/13 12:25:03;;;;;;;7.25;3.28;;;16.20;99.90;;;;;;5065625;28;20036;-65
2022/05/13 12:27:45;;;;;;;19.92;4.10;;;16.10;99.90;;;;;;5057739;28;20037;-65
2022/05/13 12:30:34;;;;;;;18.30;3.72;;;15.90;99.90;;;;;;5052423;28;20059;-65
2022/05/13 12:33:23;;;;;;;16.83;3.75;;;15.80;99.90;;;;;;5073692;28;20443;-65
2022/05/13 12:39:17;;;;;;;9.07;4.10;;;15.80;99.90;;;;;;5055966;28;20044;-65
2022/05/13 12:41:44;;;;;;;9.00;4.07;;;15.90;99.90;;;;;;5063212;28;20049;-65
2022/05/13 12:44:14;;;;;;;8.75;4.90;;;16.10;99.90;;;;;;5053574;28;20067;-65
2022/05/13 12:47:11;;;;;;;13.73;3.92;;;16.10;99.90;;;;;;5053663;28;20103;-65
2022/05/13 12:49:59;;;;;;;12.95;4.22;;;16.30;99.90;;;;;;5070087;28;20086;-65
2022/05/13 12:52:32;;;;;;;;;;;16.70;99.90;;;;;;5054023;28;20094;-65
2022/05/13 12:55:12;;;;;;;9.15;4.10;;;16.90;99.90;;;;;;5053328;28;19921;-65
2022/05/13 12:57:43;;;;;;;11.40;4.25;;;17.20;99.90;;;;;;5062609;28;20041;-65
2022/05/13 13:00:15;;;;;;;10.35;4.03;;;17.10;99.90;;;;;;5059477;28;20064;-65
2022/05/13 13:02:43;;;;;;;7.72;4.13;;;17.10;99.90;;;;;;5053390;28;20045;-65
2022/05/13 13:05:19;;;;;;;15.85;3.80;;;16.90;99.90;;;;;;5053463;28;20049;-65
2022/05/13 13:07:45;;;;;;;7.28;3.38;;;16.80;99.90;;;;;;5062800;28;20090;-65
2022/05/13 13:10:17;;;;;;;7.72;4.28;;;16.70;99.90;;;;;;5058518;28;20045;-65
2022/05/13 13:13:11;;;;;;;8.02;3.60;;;16.50;99.90;;;;;;5053214;28;20037;-65
2022/05/13 13:15:45;;;;;;;11.55;3.88;;;16.50;99.90;;;;;;5071660;28;20523;-66
2022/05/13 13:18:12;;;;;;;12.57;4.32;;;16.40;99.90;;;;;;5053300;28;20072;-65
2022/05/13 13:20:59;;;;;;;6.30;4.10;;;16.30;99.90;;;;;;5052144;28;20485;-65
2022/05/13 13:23:33;;;;;;;8.32;3.95;;;16.30;99.90;;;;;;5052814;28;20447;-65
2022/05/13 13:26:01;;;;;;;8.73;4.13;;;16.30;99.90;;;;;;5064908;28;20049;-65
2022/05/13 13:28:32;;;;;;;8.82;4.50;;;16.40;99.90;;;;;;5072947;28;20841;-65
2022/05/13 13:31:06;;;;;;;12.10;5.00;;;16.40;99.90;;;;;;5072036;28;20064;-65
2022/05/13 13:33:35;;;;;;;13.68;5.10;;;16.50;99.90;;;;;;5050549;28;20397;-65
2022/05/13 13:36:11;;;;;;;11.35;5.53;;;16.60;99.90;;;;;;5068668;28;20154;-65
2022/05/13 13:38:40;;;;;;;14.02;5.10;;;16.70;99.90;;;;;;5052614;28;20045;-65